createdAt,value
2022-12-17T00:00:47.045Z,99024.78
2022-12-17T00:02:37.851Z,99026.00
2022-12-17T00:04:28.675Z,99044.75
2022-12-17T00:06:19.221Z,99046.09
2022-12-17T00:08:15.577Z,99040.69
2022-12-17T00:10:06.187Z,99038.72
2022-12-17T00:12:11.113Z,99033.69
2022-12-17T00:14:03.341Z,99036.13
2022-12-17T00:15:54.293Z,99048.88
2022-12-17T00:17:47.309Z,99042.28
2022-12-17T00:19:49.434Z,99039.03
2022-12-17T00:21:40.093Z,99040.81
2022-12-17T00:23:30.907Z,99040.88
2022-12-17T00:25:21.859Z,99028.53
2022-12-17T00:27:12.506Z,99035.28
2022-12-17T00:29:04.354Z,99029.84
2022-12-17T00:30:51.321Z,99032.28
2022-12-17T00:32:42.742Z,99029.53
2022-12-17T00:34:33.483Z,99026.69
2022-12-17T00:36:24.350Z,99018.72
2022-12-17T00:38:14.829Z,99016.91
2022-12-17T00:40:05.387Z,99017.00
2022-12-17T00:41:55.875Z,99022.25
2022-12-17T00:43:46.978Z,99031.97
2022-12-17T00:45:40.174Z,99031.97
2022-12-17T00:47:30.813Z,99031.03
2022-12-17T00:49:21.460Z,99034.63
2022-12-17T00:51:14.037Z,99004.09
2022-12-17T00:53:09.913Z,99004.91
2022-12-17T00:55:00.815Z,99008.66
2022-12-17T00:56:51.639Z,99022.75
2022-12-17T00:58:42.424Z,99014.84
2022-12-17T01:00:34.786Z,99009.66
2022-12-17T01:02:27.157Z,99036.88
2022-12-17T01:04:17.773Z,99012.44
2022-12-17T01:06:08.565Z,99007.63
2022-12-17T01:07:58.844Z,99023.34
2022-12-17T01:09:50.563Z,99023.19
2022-12-17T01:11:41.233Z,99009.19
2022-12-17T01:13:32.017Z,99009.06
2022-12-17T01:15:23.540Z,99011.78
2022-12-17T01:17:14.040Z,99005.78
2022-12-17T01:19:05.750Z,99006.66
2022-12-17T01:20:56.049Z,99005.97
2022-12-17T01:22:47.191Z,99013.16
2022-12-17T01:24:40.072Z,99002.69
2022-12-17T01:26:33.038Z,99007.00
2022-12-17T01:28:20.044Z,99005.31
2022-12-17T01:30:11.970Z,99002.66
2022-12-17T01:32:02.943Z,98994.97
2022-12-17T01:33:53.987Z,99003.75
2022-12-17T01:35:46.061Z,99013.44
2022-12-17T01:37:36.757Z,98994.28
2022-12-17T01:39:27.284Z,99003.16
2022-12-17T01:41:18.142Z,99001.56
2022-12-17T01:43:08.715Z,99002.44
2022-12-17T01:45:12.078Z,98996.38
2022-12-17T01:47:08.579Z,98978.06
2022-12-17T01:49:02.192Z,98977.16
2022-12-17T01:50:58.497Z,98999.13
2022-12-17T01:52:48.921Z,98992.13
2022-12-17T01:54:41.707Z,98970.38
2022-12-17T01:56:32.751Z,98997.50
2022-12-17T01:58:23.236Z,99002.78
2022-12-17T02:00:15.532Z,98987.81
2022-12-17T02:02:06.204Z,98986.03
2022-12-17T02:03:57.023Z,99003.44
2022-12-17T02:05:53.190Z,99013.88
2022-12-17T02:07:59.518Z,99002.56
2022-12-17T02:09:58.678Z,99010.50
2022-12-17T02:11:57.583Z,99016.91
2022-12-17T02:13:54.995Z,98989.34
2022-12-17T02:15:52.628Z,99007.66
2022-12-17T02:17:51.866Z,99018.31
2022-12-17T02:19:58.506Z,99014.97
2022-12-17T02:21:51.947Z,99013.25
2022-12-17T02:23:56.524Z,99029.97
2022-12-17T02:25:55.199Z,99005.50
2022-12-17T02:28:01.010Z,98999.31
2022-12-17T02:29:58.157Z,98994.06
2022-12-17T02:31:49.278Z,98989.69
2022-12-17T02:33:40.819Z,98993.13
2022-12-17T02:35:34.765Z,99002.59
2022-12-17T02:37:25.090Z,99012.06
2022-12-17T02:39:15.941Z,99022.50
2022-12-17T02:41:08.267Z,99018.88
2022-12-17T02:43:05.870Z,99021.53
2022-12-17T02:45:01.418Z,99018.16
2022-12-17T02:46:52.153Z,99021.53
2022-12-17T02:48:45.899Z,99028.63
2022-12-17T02:50:36.810Z,99009.50
2022-12-17T02:52:34.595Z,99009.50
2022-12-17T02:54:27.197Z,99015.66
2022-12-17T02:56:17.872Z,99007.03
2022-12-17T02:58:09.878Z,99018.38
2022-12-17T03:00:11.609Z,99007.13
2022-12-17T03:02:02.352Z,99004.56
2022-12-17T03:03:55.107Z,99015.03
2022-12-17T03:05:46.210Z,99007.06
2022-12-17T03:07:37.068Z,99011.41
2022-12-17T03:09:27.670Z,98993.91
2022-12-17T03:11:18.313Z,99004.41
2022-12-17T03:13:10.207Z,99007.84
2022-12-17T03:15:01.122Z,99032.19
2022-12-17T03:16:51.742Z,99008.47
2022-12-17T03:18:42.342Z,98992.88
2022-12-17T03:20:33.111Z,98996.38
2022-12-17T03:22:23.824Z,98993.72
2022-12-17T03:24:14.535Z,98990.25
2022-12-17T03:26:07.583Z,98972.88
2022-12-17T03:27:58.270Z,98967.88
2022-12-17T03:29:50.375Z,98984.50
2022-12-17T03:31:41.274Z,99002.84
2022-12-17T03:33:32.125Z,98973.16
2022-12-17T03:35:28.906Z,98957.47
2022-12-17T03:37:19.687Z,98960.25
2022-12-17T03:39:10.329Z,98959.38
2022-12-17T03:41:00.704Z,98950.69
2022-12-17T03:42:51.003Z,98940.22
2022-12-17T03:44:49.847Z,98933.22
2022-12-17T03:46:41.955Z,98941.03
2022-12-17T03:48:33.582Z,98938.38
2022-12-17T03:50:24.949Z,98935.75
2022-12-17T03:52:11.977Z,98944.56
2022-12-17T03:54:02.915Z,98945.47
2022-12-17T03:55:53.666Z,98949.88
2022-12-17T03:57:44.264Z,98940.31
2022-12-17T03:59:43.172Z,98948.25
2022-12-17T04:01:33.883Z,98942.09
2022-12-17T04:03:34.809Z,98928.50
2022-12-17T04:05:26.159Z,98922.19
2022-12-17T04:07:16.867Z,98924.81
2022-12-17T04:09:07.739Z,98919.63
2022-12-17T04:10:58.213Z,98917.03
2022-12-17T04:12:48.593Z,98917.00
2022-12-17T04:14:39.199Z,98918.69
2022-12-17T04:16:29.400Z,98917.78
2022-12-17T04:18:19.789Z,98899.44
2022-12-17T04:20:11.743Z,98916.03
2022-12-17T04:22:02.333Z,98898.53
2022-12-17T04:23:52.737Z,98882.91
2022-12-17T04:25:43.388Z,98898.09
2022-12-17T04:27:34.323Z,98878.16
2022-12-17T04:29:25.296Z,98874.69
2022-12-17T04:31:15.695Z,98890.56
2022-12-17T04:33:07.043Z,98874.13
2022-12-17T04:35:08.899Z,98864.47
2022-12-17T04:37:00.705Z,98899.44
2022-12-17T04:38:51.353Z,98890.72
2022-12-17T04:40:41.812Z,98864.50
2022-12-17T04:42:32.108Z,98873.25
2022-12-17T04:44:22.691Z,98867.97
2022-12-17T04:46:13.653Z,98859.22
2022-12-17T04:48:04.333Z,98858.28
2022-12-17T04:49:54.947Z,98870.50
2022-12-17T04:51:45.908Z,98876.72
2022-12-17T04:53:38.212Z,98871.34
2022-12-17T04:55:29.246Z,98871.34
2022-12-17T04:57:20.275Z,98880.06
2022-12-17T04:59:10.463Z,98869.59
2022-12-17T05:01:00.837Z,98885.34
2022-12-17T05:02:51.620Z,98897.81
2022-12-17T05:04:42.252Z,98907.63
2022-12-17T05:06:35.266Z,98907.66
2022-12-17T05:08:25.739Z,98907.59
2022-12-17T05:10:17.827Z,98902.44
2022-12-17T05:12:08.692Z,98902.41
2022-12-17T05:13:59.403Z,98915.44
2022-12-17T05:15:53.331Z,98914.69
2022-12-17T05:17:44.115Z,98925.91
2022-12-17T05:19:34.719Z,98908.50
2022-12-17T05:21:29.207Z,98913.69
2022-12-17T05:23:31.012Z,98915.41
2022-12-17T05:25:23.349Z,98923.22
2022-12-17T05:27:13.928Z,98915.50
2022-12-17T05:29:04.671Z,98905.16
2022-12-17T05:30:55.482Z,98928.72
2022-12-17T05:32:46.114Z,98912.22
2022-12-17T05:34:36.681Z,98925.38
2022-12-17T05:36:28.132Z,98926.34
2022-12-17T05:38:25.268Z,98922.94
2022-12-17T05:40:15.862Z,98912.53
2022-12-17T05:42:07.613Z,98928.28
2022-12-17T05:43:58.161Z,98928.31
2022-12-17T05:45:51.181Z,98931.91
2022-12-17T05:47:53.317Z,98938.94
2022-12-17T05:49:44.084Z,98929.38
2022-12-17T05:51:38.635Z,98926.06
2022-12-17T05:53:29.958Z,98923.41
2022-12-17T05:55:20.463Z,98925.19
2022-12-17T05:57:12.837Z,98931.16
2022-12-17T05:59:03.394Z,98949.44
2022-12-17T06:00:53.537Z,98933.81
2022-12-17T06:02:44.213Z,98942.56
2022-12-17T06:04:35.026Z,98951.38
2022-12-17T06:06:26.369Z,98945.22
2022-12-17T06:08:22.559Z,98959.97
2022-12-17T06:10:13.163Z,98952.03
2022-12-17T06:12:03.558Z,98947.59
2022-12-17T06:13:56.967Z,98937.91
2022-12-17T06:15:47.695Z,98936.91
2022-12-17T06:17:38.354Z,98956.09
2022-12-17T06:19:40.740Z,98943.00
2022-12-17T06:21:31.421Z,98943.81
2022-12-17T06:23:23.852Z,98958.56
2022-12-17T06:25:14.857Z,98962.84
2022-12-17T06:27:05.812Z,98957.72
2022-12-17T06:29:01.664Z,98961.13
2022-12-17T06:30:52.561Z,98967.91
2022-12-17T06:32:43.283Z,98967.88
2022-12-17T06:34:33.557Z,98952.09
2022-12-17T06:36:25.254Z,98954.63
2022-12-17T06:38:19.385Z,98955.41
2022-12-17T06:40:10.237Z,98947.66
2022-12-17T06:42:04.896Z,98964.22
2022-12-17T06:43:56.354Z,98976.47
2022-12-17T06:45:50.116Z,98988.56
2022-12-17T06:47:40.762Z,98970.97
2022-12-17T06:49:31.887Z,98956.84
2022-12-17T06:51:22.684Z,98952.34
2022-12-17T06:53:20.687Z,98951.38
2022-12-17T06:55:12.330Z,98961.88
2022-12-17T06:57:03.411Z,98970.44
2022-12-17T06:58:54.979Z,98975.59
2022-12-17T07:00:45.520Z,98976.28
2022-12-17T07:02:37.730Z,98971.72
2022-12-17T07:04:28.634Z,98974.28
2022-12-17T07:06:20.807Z,98982.03
2022-12-17T07:08:16.060Z,98984.56
2022-12-17T07:10:12.146Z,98970.50
2022-12-17T07:12:05.519Z,98984.34
2022-12-17T07:13:57.243Z,99001.03
2022-12-17T07:15:48.204Z,98993.16
2022-12-17T07:17:54.542Z,99004.44
2022-12-17T07:19:45.112Z,99009.25
2022-12-17T07:21:36.406Z,99007.81
2022-12-17T07:23:29.867Z,99015.94
2022-12-17T07:25:20.484Z,99018.81
2022-12-17T07:27:11.150Z,99032.13
2022-12-17T07:29:02.021Z,99029.69
2022-12-17T07:30:55.758Z,99026.22
2022-12-17T07:32:47.751Z,99027.78
2022-12-17T07:34:38.609Z,99029.44
2022-12-17T07:36:29.211Z,99016.44
2022-12-17T07:38:21.163Z,99010.88
2022-12-17T07:40:11.948Z,99009.91
2022-12-17T07:42:02.879Z,99017.44
2022-12-17T07:43:59.210Z,99014.72
2022-12-17T07:45:50.276Z,99011.94
2022-12-17T07:47:40.753Z,99017.19
2022-12-17T19:03:47.312Z,99741.25
2022-12-17T19:05:20.547Z,99742.91
2022-12-17T19:06:54.492Z,99757.84
2022-12-17T19:08:27.681Z,99760.44
2022-12-17T19:10:00.858Z,99756.97
2022-12-17T19:11:39.116Z,99761.38
2022-12-17T19:13:15.209Z,99749.84
2022-12-17T19:14:48.322Z,99747.22
2022-12-17T19:16:24.235Z,99757.84
2022-12-17T19:17:57.571Z,99754.34
2022-12-17T19:19:32.123Z,99754.34
2022-12-17T19:21:06.418Z,99761.34
2022-12-17T19:22:39.574Z,99762.22
2022-12-17T19:24:15.323Z,99764.88
2022-12-17T19:25:48.510Z,99757.84
2022-12-17T19:27:21.983Z,99756.09
2022-12-17T19:28:56.783Z,99758.72
2022-12-17T19:30:29.961Z,99767.66
2022-12-17T19:32:03.254Z,99769.34
2022-12-17T19:33:36.772Z,99773.75
2022-12-17T19:35:11.492Z,99785.09
2022-12-17T19:36:45.266Z,99785.97
2022-12-17T19:38:18.434Z,99780.69
2022-12-17T19:39:51.552Z,99786.97
2022-12-17T19:41:26.429Z,99779.06
2022-12-17T19:42:59.778Z,99793.09
2022-12-17T19:44:34.231Z,99791.38
2022-12-17T19:46:09.802Z,99797.50
2022-12-17T19:47:43.109Z,99796.59
2022-12-17T19:49:17.710Z,99791.28
2022-12-17T19:50:58.348Z,99800.03
2022-12-17T19:52:31.637Z,99807.88
2022-12-17T19:54:08.745Z,99810.53
2022-12-17T19:55:42.244Z,99805.19
2022-12-17T19:57:15.435Z,99799.94
2022-12-17T19:58:52.588Z,99807.09
2022-12-17T20:00:25.870Z,99815.09
2022-12-17T20:02:03.614Z,99805.34
2022-12-17T20:03:37.954Z,99812.41
2022-12-17T20:05:11.289Z,99818.44
2022-12-17T20:06:46.446Z,99803.59
2022-12-17T20:08:22.589Z,99815.84
2022-12-17T20:09:55.955Z,99812.25
2022-12-17T20:11:35.891Z,99811.31
2022-12-17T20:13:09.475Z,99816.66
2022-12-17T20:14:42.747Z,99819.31
2022-12-17T20:16:16.029Z,99819.53
2022-12-17T20:17:49.250Z,99830.13
2022-12-17T20:19:24.523Z,99835.53
2022-12-17T20:21:03.361Z,99840.09
2022-12-17T20:22:37.986Z,99842.75
2022-12-17T20:24:12.017Z,99838.38
2022-12-17T20:25:45.528Z,99837.53
2022-12-17T20:27:18.710Z,99853.41
2022-12-17T20:28:51.818Z,99850.25
2022-12-17T20:30:24.994Z,99838.00
2022-12-17T20:31:58.297Z,99846.72
2022-12-17T20:33:32.217Z,99857.25
2022-12-17T20:35:06.218Z,99849.38
2022-12-17T20:36:40.558Z,99857.25
2022-12-17T20:38:15.320Z,99859.00
2022-12-17T20:39:48.460Z,99855.44
2022-12-17T20:41:24.523Z,99855.72
2022-12-17T20:42:57.842Z,99859.81
2022-12-17T20:44:31.061Z,99862.56
2022-12-17T20:46:04.442Z,99862.56
2022-12-17T20:47:37.633Z,99867.03
2022-12-17T20:49:12.572Z,99867.88
2022-12-17T20:50:46.135Z,99865.22
2022-12-17T20:52:19.360Z,99866.25
2022-12-17T20:53:54.871Z,99872.47
2022-12-17T20:55:31.252Z,99875.13
2022-12-17T20:57:04.709Z,99871.63
2022-12-17T20:58:39.359Z,99873.41
2022-12-17T21:00:13.549Z,99866.34
2022-12-17T21:01:51.659Z,99861.09
2022-12-17T21:03:29.200Z,99864.63
2022-12-17T21:05:02.489Z,99864.50
2022-12-17T21:06:38.958Z,99869.81
2022-12-17T21:08:12.232Z,99871.63
2022-12-17T21:09:46.906Z,99880.72
2022-12-17T21:11:22.255Z,99883.25
2022-12-17T21:13:12.847Z,99877.03
2022-12-17T21:14:46.089Z,99877.13
2022-12-17T21:16:21.568Z,99880.50
2022-12-17T21:17:54.986Z,99880.59
2022-12-17T21:19:28.362Z,99887.84
2022-12-17T21:21:03.810Z,99887.84
2022-12-17T21:22:36.975Z,99895.91
2022-12-17T21:24:11.155Z,99888.13
2022-12-17T21:25:45.786Z,99896.91
2022-12-17T21:27:18.954Z,99904.16
2022-12-17T21:28:54.961Z,99899.78
2022-12-17T21:30:28.281Z,99905.97
2022-12-17T21:32:03.139Z,99912.16
2022-12-17T21:33:36.584Z,99908.72
2022-12-17T21:35:10.427Z,99901.03
2022-12-17T21:36:44.135Z,99911.56
2022-12-17T21:38:17.623Z,99911.56
2022-12-17T21:39:55.149Z,99907.34
2022-12-17T21:41:34.914Z,99909.41
2022-12-17T21:43:07.276Z,99918.25
2022-12-17T21:44:40.531Z,99924.44
2022-12-17T21:46:15.085Z,99912.19
2022-12-17T21:47:48.259Z,99914.22
2022-12-17T21:49:21.476Z,99912.75
2022-12-17T21:50:54.904Z,99919.84
2022-12-17T21:52:28.326Z,99918.19
2022-12-17T21:54:08.524Z,99926.34
2022-12-17T21:55:43.136Z,99928.91
2022-12-17T21:57:17.925Z,99923.69
2022-12-17T21:58:56.706Z,99929.84
2022-12-17T22:00:29.988Z,99911.69
2022-12-17T22:02:03.351Z,99921.22
2022-12-17T22:03:35.677Z,99925.59
2022-12-17T22:05:13.693Z,99936.16
2022-12-17T22:06:53.977Z,99937.94
2022-12-17T22:08:29.432Z,99934.44
2022-12-17T22:10:27.978Z,99939.91
2022-12-17T22:12:17.252Z,99939.22
2022-12-17T22:14:16.997Z,99950.03
2022-12-17T22:15:53.780Z,99938.69
2022-12-17T22:17:26.015Z,99955.34
2022-12-17T22:19:00.274Z,99956.31
2022-12-17T22:20:33.509Z,99950.06
2022-12-17T22:22:06.752Z,99952.75
2022-12-17T22:23:40.002Z,99942.31
2022-12-17T22:25:14.187Z,99952.09
2022-12-17T22:26:48.022Z,99951.19
2022-12-17T22:28:21.234Z,99960.03
2022-12-17T22:30:14.346Z,99966.16
2022-12-17T22:32:05.110Z,99965.31
2022-12-17T22:33:48.877Z,99968.00
2022-12-17T22:36:22.056Z,99989.28
2022-12-17T22:41:36.989Z,99962.81
2022-12-17T22:42:27.377Z,99967.38
2022-12-17T22:44:35.117Z,99961.25
2022-12-17T22:44:42.338Z,99971.03
2022-12-17T22:45:26.216Z,99985.13
2022-12-17T22:46:59.443Z,99982.59
2022-12-17T22:48:34.207Z,99979.16
2022-12-17T22:50:08.117Z,99968.78
2022-12-17T22:51:42.855Z,99985.41
2022-12-17T22:53:16.825Z,99990.66
2022-12-17T22:54:50.439Z,99986.19
2022-12-17T22:56:43.668Z,99992.41
2022-12-17T22:58:17.559Z,99988.84
2022-12-17T22:59:51.630Z,99995.88
2022-12-17T23:01:26.268Z,99988.84
2022-12-17T23:02:59.792Z,99997.59
2022-12-17T23:04:33.221Z,99984.44
2022-12-17T23:06:10.698Z,99995.94
2022-12-17T23:07:43.919Z,99997.53
2022-12-17T23:09:19.626Z,99992.25
2022-12-17T23:10:52.908Z,100001.16
2022-12-17T23:12:43.899Z,100004.69
2022-12-17T23:14:17.577Z,100003.94
2022-12-17T23:15:52.754Z,99998.69
2022-12-17T23:17:27.404Z,99998.69
2022-12-17T23:19:02.086Z,99988.34
2022-12-17T23:20:36.141Z,99996.28
2022-12-17T23:22:09.383Z,99987.41
2022-12-17T23:23:43.138Z,99996.16
2022-12-17T23:25:16.579Z,99995.28
2022-12-17T23:26:49.735Z,100004.09
2022-12-17T23:28:22.899Z,99998.00
2022-12-17T23:29:55.049Z,100004.06
2022-12-17T23:31:29.708Z,100000.56
2022-12-17T23:33:04.425Z,100008.50
2022-12-17T23:34:37.652Z,99997.13
2022-12-17T23:36:13.053Z,99995.03
2022-12-17T23:37:46.213Z,100015.59
2022-12-17T23:39:19.516Z,100019.09
2022-12-17T23:40:52.686Z,100022.53
2022-12-17T23:42:25.881Z,100028.84
2022-12-17T23:43:59.574Z,100017.56
2022-12-17T23:45:32.751Z,100029.72
2022-12-17T23:47:05.064Z,100033.19
2022-12-17T23:48:45.293Z,100021.75
2022-12-17T23:50:19.016Z,100019.22
2022-12-17T23:51:51.248Z,100024.50
2022-12-17T23:53:24.487Z,100043.94
2022-12-17T23:54:57.644Z,100036.00
2022-12-17T23:56:31.016Z,100035.06
2022-12-17T23:58:04.278Z,100043.94
2022-12-17T23:59:37.434Z,100044.03
